Energy Challenger — MJUV7 — position and weather

sailwx.info

Track history (hours):
 
Tides and Currents Weather Stations Pressure Air Temp Water Temp Dewpoint Dewpoint Depression Visibility Wind Speed Wind Dir Waves Ship Positions

Energy Challenger

Last reported at 2018-Apr-27 09:52 UTC. Time now 2018-May-20 13:28 UTC.
Position N 32°23' W 117°39'.
Warning: this ship's position is 23 days out of date.

Length 228 m; draft 8.5 m.

Type: Tanker. MMSI: 235009400.

Date/timePositionNaut miles runAvg speedWind from/ knotsBaromVisibWave heightAir tempDewpointWater temp
2018-Apr-27 09:52N 32°23' W 117°39'411.2
2018-Apr-27 09:30N 32°27' W 117°40'5 9.6
2018-Apr-27 08:59N 32°31' W 117°43'510.5
2018-Apr-27 08:29N 32°36' W 117°45'611.8
2018-Apr-27 08:01N 32°42' W 117°47'612.0
2018-Apr-27 07:30N 32°47' W 117°50'612.1
2018-Apr-27 07:00N 32°53' W 117°53'612.1
2018-Apr-27 06:30N 32°58' W 117°56'611.9
2018-Apr-27 06:00N 33°04' W 117°58'612.2
2018-Apr-27 05:30N 33°09' W 118°01'612.1
2018-Apr-27 05:00N 33°15' W 118°05'1211.8
2018-Apr-27 03:57N 33°26' W 118°10'712.0
2018-Apr-27 03:23N 33°33' W 118°12'410.1
2018-Apr-27 03:01N 33°36' W 118°16'611.4
2018-Apr-27 02:30N 33°36' W 118°23'611.7
2018-Apr-27 02:01N 33°39' W 118°28'611.1
2018-Apr-27 01:30N 33°43' W 118°33'611.2
2018-Apr-27 00:57N 33°49' W 118°30'510.0
2018-Apr-27 00:29N 33°54' W 118°29'1 2.8
2018-Apr-27 00:01N 33°54' W 118°28'1 0.0
2018-Apr-25 16:50N 33°55' W 118°27'0 0.0
2018-Apr-25 16:29N 33°55' W 118°27'1 1.1
2018-Apr-25 15:25N 33°54' W 118°28'2 2.8
2018-Apr-25 14:46N 33°53' W 118°30'0 0.9
2018-Apr-25 14:25N 33°52' W 118°30'1 1.5
2018-Apr-25 13:56N 33°52' W 118°30'1 3.1
2018-Apr-25 13:31N 33°50' W 118°30'1 1.6
2018-Apr-25 13:00N 33°50' W 118°30'2 4.2
2018-Apr-25 12:30N 33°47' W 118°30'3 6.0
2018-Apr-25 11:59N 33°44' W 118°30'6 9.4
2018-Apr-25 11:18N 33°40' W 118°24'311.1
2018-Apr-25 10:59N 33°38' W 118°21'511.1
2018-Apr-25 10:29N 33°39' W 118°14'5 9.7
2018-Apr-25 10:00N 33°41' W 118°09'1 2.2
2018-Apr-25 09:29N 33°41' W 118°08'0 0.1
2018-Apr-25 08:53N 33°41' W 118°08'0 0.0
2018-Apr-25 08:29N 33°41' W 118°08'0 0.0
2018-Apr-25 07:59N 33°41' W 118°08'0 0.1
2018-Apr-25 07:29N 33°41' W 118°08'0 0.0
2018-Apr-25 06:47N 33°41' W 118°08'0 0.0
2018-Apr-25 06:17N 33°41' W 118°08'0 0.0
2018-Apr-25 05:53N 33°41' W 118°08'0 0.0
2018-Apr-25 05:29N 33°41' W 118°08'0 0.0
2018-Apr-25 04:59N 33°41' W 118°08'0 0.0
2018-Apr-25 04:23N 33°41' W 118°08'0 0.0
2018-Apr-25 03:59N 33°41' W 118°08'0 0.0
2018-Apr-25 03:29N 33°41' W 118°08'0 0.0
2018-Apr-25 02:59N 33°41' W 118°08'0 0.0
2018-Apr-25 02:29N 33°41' W 118°08'0 0.0
2018-Apr-25 01:59N 33°41' W 118°08'0 0.0
2018-Apr-25 01:29N 33°41' W 118°08'0 0.0
2018-Apr-25 00:59N 33°41' W 118°08'0 0.0
2018-Apr-25 00:29N 33°41' W 118°08'0 0.0
2018-Apr-24 23:59N 33°41' W 118°08'0 0.0
2018-Apr-24 23:29N 33°41' W 118°08'0 0.0
2018-Apr-24 22:59N 33°41' W 118°08'0 0.0
2018-Apr-24 22:29N 33°41' W 118°08'0 0.0
2018-Apr-24 21:59N 33°41' W 118°08'0 0.0
2018-Apr-24 21:29N 33°41' W 118°08'0 0.0
2018-Apr-24 20:59N 33°41' W 118°08'0 0.0
2018-Apr-24 20:29N 33°41' W 118°08'0 0.0
2018-Apr-24 19:59N 33°41' W 118°08'0 0.0
2018-Apr-24 19:29N 33°41' W 118°08'0 0.0
2018-Apr-24 18:59N 33°41' W 118°08'0 0.0
2018-Apr-24 18:29N 33°41' W 118°08'0 0.0
2018-Apr-24 17:59N 33°41' W 118°08'0 0.0
2018-Apr-24 17:29N 33°41' W 118°08'0 0.1
2018-Apr-24 16:59N 33°41' W 118°08'0 0.1
2018-Apr-24 16:29N 33°41' W 118°08'0 0.0
2018-Apr-24 15:59N 33°41' W 118°08'0 0.1
2018-Apr-24 15:29N 33°41' W 118°08'0 0.0
2018-Apr-24 14:59N 33°41' W 118°08'0 0.1
2018-Apr-24 14:29N 33°41' W 118°08'0 0.0
2018-Apr-24 13:59N 33°41' W 118°08'0 0.0
2018-Apr-24 13:29N 33°41' W 118°08'0 0.1
2018-Apr-24 12:59N 33°41' W 118°08'0 0.2
2018-Apr-24 12:26N 33°41' W 118°08'0 0.2
2018-Apr-24 11:53N 33°41' W 118°08'0 0.0
2018-Apr-24 11:29N 33°41' W 118°08'0 0.0
2018-Apr-24 10:59N 33°41' W 118°08'0 0.0
2018-Apr-24 10:29N 33°41' W 118°08'0 0.1
2018-Apr-24 09:53N 33°41' W 118°08'0 0.0
2018-Apr-24 09:29N 33°41' W 118°08'0 0.0
2018-Apr-24 07:59N 33°41' W 118°08'0 0.0
2018-Apr-24 07:29N 33°41' W 118°08'0 0.0
2018-Apr-24 06:59N 33°41' W 118°08'0 0.0
2018-Apr-24 06:29N 33°41' W 118°08'0 0.0
2018-Apr-24 05:59N 33°41' W 118°08'0 0.0
2018-Apr-24 05:29N 33°41' W 118°08'0 0.0
2018-Apr-24 04:59N 33°41' W 118°08'0 0.0
2018-Apr-24 04:29N 33°41' W 118°08'0 0.0
2018-Apr-24 03:59N 33°41' W 118°08'0 0.0
2018-Apr-24 03:29N 33°41' W 118°08'0 0.1
2018-Apr-24 02:59N 33°41' W 118°08'0 0.0
2018-Apr-24 02:29N 33°41' W 118°08'0 0.0
2018-Apr-24 01:59N 33°41' W 118°08'0 0.0
2018-Apr-24 01:29N 33°41' W 118°08'0 0.1
2018-Apr-24 00:59N 33°41' W 118°08'0 0.0
2018-Apr-24 00:29N 33°41' W 118°08'0 0.1
2018-Apr-23 23:59N 33°41' W 118°08'0 0.0
2018-Apr-23 23:29N 33°41' W 118°08'0 0.0
2018-Apr-23 22:59N 33°41' W 118°08'0 0.0
2018-Apr-23 22:29N 33°41' W 118°08'0 0.1
2018-Apr-23 21:59N 33°41' W 118°08'0 0.0
2018-Apr-23 21:29N 33°41' W 118°08'0 0.0
2018-Apr-23 20:59N 33°41' W 118°08'0 0.0
2018-Apr-23 20:29N 33°41' W 118°08'0 0.0
2018-Apr-23 19:59N 33°41' W 118°08'0 0.0
2018-Apr-23 19:29N 33°41' W 118°08'0 0.1
2018-Apr-23 18:56N 33°41' W 118°08'0 0.1
2018-Apr-23 18:29N 33°41' W 118°08'0 0.1
2018-Apr-23 17:56N 33°41' W 118°08'0 0.0
2018-Apr-23 17:29N 33°41' W 118°08'0 0.0
2018-Apr-23 16:59N 33°41' W 118°08'0 0.1
2018-Apr-23 16:29N 33°41' W 118°08'0 0.1
2018-Apr-23 15:59N 33°41' W 118°08'0 0.0
2018-Apr-23 15:29N 33°41' W 118°08'0 0.1
2018-Apr-23 14:59N 33°41' W 118°08'0 0.0
2018-Apr-23 14:29N 33°41' W 118°08'0 0.0
2018-Apr-23 13:59N 33°41' W 118°08'0 0.1
2018-Apr-23 13:26N 33°41' W 118°08'0 0.0
2018-Apr-23 12:59N 33°41' W 118°08'0 0.0
2018-Apr-23 11:11N 33°41' W 118°08'0 0.0
2018-Apr-23 10:41N 33°41' W 118°08'0 0.1
2018-Apr-23 10:29N 33°41' W 118°08'0 0.0
2018-Apr-23 09:59N 33°41' W 118°08'0 0.0
2018-Apr-23 09:29N 33°41' W 118°08'0 0.1
2018-Apr-23 08:59N 33°41' W 118°08'0 0.0
2018-Apr-23 08:29N 33°41' W 118°08'0 0.0
2018-Apr-23 07:41N 33°41' W 118°08'0 0.0
2018-Apr-23 07:29N 33°41' W 118°08'0 0.1
2018-Apr-23 06:59N 33°41' W 118°08'0 0.0
2018-Apr-23 06:29N 33°41' W 118°08'0 0.0
2018-Apr-23 05:59N 33°41' W 118°08'0 0.1
2018-Apr-23 05:29N 33°41' W 118°08'0 0.1
2018-Apr-23 04:59N 33°41' W 118°08'0 0.0
2018-Apr-23 04:29N 33°41' W 118°08'0 0.0
2018-Apr-23 03:59N 33°41' W 118°08'0 0.0
2018-Apr-23 03:29N 33°41' W 118°08'0 0.0
2018-Apr-23 02:59N 33°41' W 118°08'0 0.0
2018-Apr-23 02:29N 33°41' W 118°08'0 0.0
2018-Apr-23 01:59N 33°41' W 118°08'0 0.0
2018-Apr-23 01:29N 33°41' W 118°08'0 0.0
2018-Apr-23 00:59N 33°41' W 118°08'0 0.0
2018-Apr-23 00:29N 33°41' W 118°08'0 0.0
2018-Apr-22 23:59N 33°41' W 118°08'0 0.0
2018-Apr-22 23:29N 33°41' W 118°08'0 0.0
2018-Apr-22 22:59N 33°41' W 118°08'0 0.0
2018-Apr-22 22:29N 33°41' W 118°08'0 0.1
2018-Apr-22 21:59N 33°41' W 118°08'0 0.0
2018-Apr-22 21:29N 33°41' W 118°08'0 0.0
2018-Apr-22 20:59N 33°41' W 118°08'0 0.0
2018-Apr-22 20:29N 33°41' W 118°08'0 0.0
2018-Apr-22 19:59N 33°41' W 118°08'0 0.1
2018-Apr-22 19:29N 33°41' W 118°08'0 0.0
2018-Apr-22 18:59N 33°41' W 118°08'0 0.0
2018-Apr-22 18:29N 33°41' W 118°08'0 0.0
2018-Apr-22 17:59N 33°41' W 118°08'0 0.0
2018-Apr-22 17:29N 33°41' W 118°08'0 0.0
2018-Apr-22 16:47N 33°41' W 118°08'0 0.0
2018-Apr-22 16:29N 33°41' W 118°08'0 0.1
2018-Apr-22 15:59N 33°41' W 118°08'0 0.0
2018-Apr-22 15:29N 33°41' W 118°08'0 0.0
2018-Apr-22 14:59N 33°41' W 118°08'0 0.0
2018-Apr-22 14:29N 33°41' W 118°08'0 0.0
2018-Apr-22 13:59N 33°41' W 118°08'0 0.0
2018-Apr-22 13:29N 33°41' W 118°08'0 0.0
2018-Apr-22 12:59N 33°41' W 118°08'0 0.1
2018-Apr-22 12:29N 33°41' W 118°08'0 0.0
2018-Apr-22 11:59N 33°41' W 118°08'0 0.0
2018-Apr-22 11:29N 33°41' W 118°08'0 0.1
2018-Apr-22 10:53N 33°41' W 118°08'0 0.0
2018-Apr-22 10:29N 33°41' W 118°08'0 0.1
2018-Apr-22 09:59N 33°41' W 118°08'0 0.0
2018-Apr-22 09:29N 33°41' W 118°08'0 0.1
2018-Apr-22 08:56N 33°41' W 118°08'0 0.0
2018-Apr-22 08:29N 33°41' W 118°08'0 0.0
2018-Apr-22 07:56N 33°41' W 118°08'0 0.1
2018-Apr-22 07:29N 33°41' W 118°08'0 0.0
2018-Apr-22 06:59N 33°41' W 118°08'0 0.0
2018-Apr-22 06:29N 33°41' W 118°08'0 0.0
2018-Apr-22 05:59N 33°41' W 118°08'0 0.0
2018-Apr-22 05:29N 33°41' W 118°08'0 0.0
2018-Apr-22 04:59N 33°41' W 118°08'0 0.1
2018-Apr-22 04:29N 33°41' W 118°08'0 0.0
2018-Apr-22 03:59N 33°41' W 118°08'0 0.0
2018-Apr-22 03:29N 33°41' W 118°08'0 0.0
2018-Apr-22 02:59N 33°41' W 118°08'0 0.0
2018-Apr-22 02:29N 33°41' W 118°08'0 0.0
2018-Apr-22 01:59N 33°41' W 118°08'0 0.0
2018-Apr-22 01:29N 33°41' W 118°08'0 0.1
2018-Apr-22 00:59N 33°41' W 118°08'0 0.0
2018-Apr-22 00:29N 33°41' W 118°08'0 0.0
2018-Apr-21 23:59N 33°41' W 118°08'0 0.0
2018-Apr-21 23:29N 33°41' W 118°08'0 0.1
2018-Apr-21 22:59N 33°41' W 118°08'0 0.1
2018-Apr-21 22:29N 33°41' W 118°08'0 0.1
2018-Apr-21 21:59N 33°41' W 118°08'0 0.0
2018-Apr-21 21:29N 33°41' W 118°08'0 0.0
2018-Apr-21 20:59N 33°41' W 118°08'0 0.0
2018-Apr-21 20:29N 33°41' W 118°08'0 0.1
2018-Apr-21 19:59N 33°41' W 118°08'0 0.0
2018-Apr-21 19:29N 33°41' W 118°08'0 0.0
2018-Apr-21 18:59N 33°41' W 118°08'0 0.0
2018-Apr-21 18:29N 33°41' W 118°08'0 0.0
2018-Apr-21 17:59N 33°41' W 118°08'0 0.0
2018-Apr-21 17:29N 33°41' W 118°08'0 0.0
2018-Apr-21 16:59N 33°41' W 118°08'0 0.0
2018-Apr-21 16:26N 33°41' W 118°08'0 0.1
2018-Apr-21 15:35N 33°41' W 118°08'0 0.1
2018-Apr-21 15:29N 33°41' W 118°08'0 0.0
2018-Apr-21 14:59N 33°41' W 118°08'0 0.1
2018-Apr-21 14:29N 33°41' W 118°08'0 0.1
2018-Apr-21 13:59N 33°41' W 118°08'0 0.0
2018-Apr-21 13:29N 33°41' W 118°08'0 0.0
2018-Apr-21 12:59N 33°41' W 118°08'0 0.0
2018-Apr-21 12:26N 33°41' W 118°08'0 0.0
2018-Apr-21 11:59N 33°41' W 118°08'0 0.0
2018-Apr-21 11:29N 33°41' W 118°08'0 0.0
2018-Apr-21 10:26N 33°41' W 118°08'0 0.1
2018-Apr-21 09:56N 33°41' W 118°08'0 0.0
2018-Apr-21 09:23N 33°41' W 118°08'0 0.1
2018-Apr-21 08:47N 33°41' W 118°08'0 0.0
2018-Apr-21 08:11N 33°41' W 118°08'0 0.0
2018-Apr-21 07:59N 33°41' W 118°08'0 0.0
2018-Apr-21 07:29N 33°41' W 118°08'0 0.0
2018-Apr-21 06:59N 33°41' W 118°08'0 0.0
2018-Apr-21 06:23N 33°41' W 118°08'0 0.1
2018-Apr-21 05:53N 33°41' W 118°08'0 0.0
2018-Apr-21 05:17N 33°41' W 118°08'0 0.1
2018-Apr-21 04:53N 33°41' W 118°08'0 0.1
2018-Apr-21 04:29N 33°41' W 118°08'0 0.0
2018-Apr-21 03:59N 33°41' W 118°08'0 0.0
2018-Apr-21 03:29N 33°41' W 118°08'0 0.0
2018-Apr-21 02:59N 33°41' W 118°08'0 0.1
2018-Apr-21 02:29N 33°41' W 118°08'0 0.0
2018-Apr-21 01:59N 33°41' W 118°08'0 0.0
2018-Apr-21 01:29N 33°41' W 118°08'0 0.0
2018-Apr-21 00:59N 33°41' W 118°08'0 0.0
2018-Apr-21 00:29N 33°41' W 118°08'0 0.0
2018-Apr-20 23:59N 33°41' W 118°08'0 0.0
2018-Apr-20 23:29N 33°41' W 118°08'0 0.2
2018-Apr-20 22:59N 33°41' W 118°08'0 0.1
2018-Apr-20 22:29N 33°41' W 118°08'0 0.0
2018-Apr-20 21:59N 33°41' W 118°08'0 0.0
2018-Apr-20 21:29N 33°41' W 118°08'0 0.1
2018-Apr-20 20:59N 33°41' W 118°08'0 0.0
2018-Apr-20 20:29N 33°41' W 118°08'0 0.1
2018-Apr-20 19:50N 33°41' W 118°08'0 0.0
2018-Apr-20 16:26N 33°41' W 118°08'0 0.0
2018-Apr-20 15:56N 33°41' W 118°08'0 0.0
2018-Apr-20 09:26N 33°41' W 118°08'0 0.0
2018-Apr-20 08:20N 33°41' W 118°08'0 0.0
2018-Apr-20 07:56N 33°41' W 118°08'0 0.0
2018-Apr-20 06:20N 33°41' W 118°08'0 0.0
2018-Apr-20 02:47N 33°41' W 118°08'0 0.1
2018-Apr-20 02:20N 33°41' W 118°08'0 0.1
2018-Apr-20 01:53N 33°41' W 118°08'0 0.0
2018-Apr-20 01:29N 33°41' W 118°08'0 0.0
2018-Apr-20 00:59N 33°41' W 118°08'0 0.1
2018-Apr-20 00:29N 33°41' W 118°08'0 0.1
2018-Apr-19 23:53N 33°41' W 118°08'0 0.0
2018-Apr-19 23:26N 33°41' W 118°08'0 0.1
2018-Apr-19 22:56N 33°41' W 118°08'0 0.0
2018-Apr-19 22:29N 33°41' W 118°08'0 0.1
2018-Apr-19 21:53N 33°41' W 118°08'0 0.1
2018-Apr-19 21:26N 33°41' W 118°08'0 0.0
2018-Apr-19 20:20N 33°41' W 118°08'0 0.0
2018-Apr-19 19:50N 33°41' W 118°08'0 0.1
2018-Apr-19 18:50N 33°41' W 118°08'0 0.0
2018-Apr-19 16:20N 33°41' W 118°08'0 0.1
2018-Apr-19 15:59N 33°41' W 118°08'0 0.1
2018-Apr-19 15:14N 33°41' W 118°08'0 0.0
2018-Apr-19 14:50N 33°41' W 118°08'0 0.0
2018-Apr-19 14:29N 33°41' W 118°08'0 0.0
2018-Apr-19 13:59N 33°41' W 118°08'0 0.0
2018-Apr-19 13:29N 33°41' W 118°08'0 0.0
2018-Apr-19 08:38N 33°41' W 118°08'0 0.0
2018-Apr-19 02:23N 33°41' W 118°08'0 0.0
2018-Apr-19 01:59N 33°41' W 118°08'0 0.0
2018-Apr-19 01:29N 33°41' W 118°08'0 0.0
2018-Apr-19 00:59N 33°41' W 118°08'0 0.0
2018-Apr-19 00:26N 33°41' W 118°08'0 0.1
2018-Apr-18 23:59N 33°41' W 118°08'0 0.0
2018-Apr-18 23:29N 33°41' W 118°08'0 0.0
2018-Apr-18 22:59N 33°41' W 118°08'0 0.0
2018-Apr-18 22:29N 33°41' W 118°08'0 0.0
2018-Apr-18 21:59N 33°41' W 118°08'0 0.0
2018-Apr-18 21:29N 33°41' W 118°08'0 0.0
2018-Apr-18 20:56N 33°41' W 118°08'0 0.1
2018-Apr-18 20:29N 33°41' W 118°08'0 0.1
2018-Apr-18 19:59N 33°41' W 118°08'0 0.0
2018-Apr-18 19:29N 33°41' W 118°08'0 0.0
2018-Apr-18 18:59N 33°41' W 118°08'0 0.0
2018-Apr-18 18:29N 33°41' W 118°08'0 0.0
2018-Apr-18 17:59N 33°41' W 118°08'0 0.0
2018-Apr-18 17:29N 33°41' W 118°08'0 0.0
2018-Apr-18 16:59N 33°41' W 118°08'0 0.0
2018-Apr-18 16:29N 33°41' W 118°08'0 0.0
2018-Apr-18 15:59N 33°41' W 118°08'0 0.1
2018-Apr-18 15:29N 33°41' W 118°08'0 0.0
2018-Apr-18 14:59N 33°41' W 118°08'0 0.1
2018-Apr-18 14:26N 33°41' W 118°08'0 0.0
2018-Apr-18 13:59N 33°41' W 118°08'0 0.1
2018-Apr-18 13:29N 33°41' W 118°08'0 0.1
2018-Apr-18 12:41N 33°41' W 118°08'0 0.0
2018-Apr-18 12:11N 33°41' W 118°08'0 0.0
2018-Apr-18 11:59N 33°41' W 118°08'0 0.0
2018-Apr-18 11:08N 33°41' W 118°08'0 0.0
2018-Apr-18 10:53N 33°41' W 118°08'0 0.0
2018-Apr-18 10:29N 33°41' W 118°08'0 0.0
2018-Apr-18 09:59N 33°41' W 118°08'0 0.0
2018-Apr-18 09:29N 33°41' W 118°08'0 0.0
2018-Apr-18 08:59N 33°41' W 118°08'0 0.0
2018-Apr-18 08:29N 33°41' W 118°08'0 0.0
2018-Apr-18 07:59N 33°41' W 118°08'0 0.0
2018-Apr-18 07:29N 33°41' W 118°08'0 0.0
2018-Apr-18 06:59N 33°41' W 118°08'0 0.0
2018-Apr-18 04:35N 33°41' W 118°08'0 0.0
2018-Apr-18 04:23N 33°41' W 118°08'0 0.1
2018-Apr-18 03:56N 33°41' W 118°08'0 0.2
2018-Apr-18 03:29N 33°41' W 118°08'0 0.0
2018-Apr-18 02:59N 33°41' W 118°08'0 0.0
2018-Apr-18 02:29N 33°41' W 118°08'0 0.0
2018-Apr-18 01:59N 33°41' W 118°08'0 0.0
2018-Apr-18 01:29N 33°41' W 118°08'0 0.1
2018-Apr-18 00:59N 33°41' W 118°08'0 0.1
2018-Apr-18 00:29N 33°41' W 118°08'0 0.1
2018-Apr-17 23:59N 33°41' W 118°08'0 0.0
2018-Apr-17 23:29N 33°41' W 118°08'0 0.1
2018-Apr-17 22:59N 33°41' W 118°08'0 0.1
2018-Apr-17 22:29N 33°41' W 118°08'0 0.0
2018-Apr-17 21:59N 33°41' W 118°08'0 0.1
2018-Apr-17 21:29N 33°41' W 118°08'0 0.1
2018-Apr-17 20:59N 33°41' W 118°08'0 0.0
2018-Apr-17 20:26N 33°41' W 118°08'0 0.0
2018-Apr-17 19:59N 33°41' W 118°08'0 0.0
2018-Apr-17 19:29N 33°41' W 118°08'0 0.1
2018-Apr-17 18:59N 33°41' W 118°08'0 0.1
2018-Apr-17 18:29N 33°41' W 118°08'0 0.0
2018-Apr-17 17:59N 33°41' W 118°08'0 0.1
2018-Apr-17 17:26N 33°41' W 118°08'0 0.1
2018-Apr-17 16:59N 33°41' W 118°08'0 0.1
2018-Apr-17 16:23N 33°41' W 118°08'0 0.2
2018-Apr-17 15:59N 33°41' W 118°08'0 0.0
2018-Apr-17 15:29N 33°41' W 118°08'0 0.0
2018-Apr-17 14:59N 33°41' W 118°08'0 0.1
2018-Apr-17 14:29N 33°41' W 118°08'0 0.1
2018-Apr-17 13:59N 33°41' W 118°08'0 0.0
2018-Apr-17 13:29N 33°41' W 118°08'1 1.4
2018-Apr-17 12:59N 33°40' W 118°08'4 6.8
2018-Apr-17 12:25N 33°37' W 118°10'19 9.7
2018-Apr-17 10:25N 33°42' W 118°33'511.5
2018-Apr-17 10:00N 33°44' W 118°38'  
Track history (hours):
 
Tides and Currents Weather Stations Pressure Air Temp Water Temp Dewpoint Dewpoint Depression Visibility Wind Speed Wind Dir Waves Ship Positions

Energy Challenger

Last reported at 2018-Apr-27 09:52 UTC. Time now 2018-May-20 13:28 UTC.
Position N 32°23' W 117°39'.
Warning: this ship's position is 23 days out of date.

Length 228 m; draft 8.5 m.

Type: Tanker. MMSI: 235009400.

Date/timePositionNaut miles runAvg speedWind from/ knotsBaromVisibWave heightAir tempDewpointWater temp
2018-Apr-27 09:52N 32°23' W 117°39'411.2
2018-Apr-27 09:30N 32°27' W 117°40'5 9.6
2018-Apr-27 08:59N 32°31' W 117°43'510.5
2018-Apr-27 08:29N 32°36' W 117°45'611.8
2018-Apr-27 08:01N 32°42' W 117°47'612.0
2018-Apr-27 07:30N 32°47' W 117°50'612.1
2018-Apr-27 07:00N 32°53' W 117°53'612.1
2018-Apr-27 06:30N 32°58' W 117°56'611.9
2018-Apr-27 06:00N 33°04' W 117°58'612.2
2018-Apr-27 05:30N 33°09' W 118°01'612.1
2018-Apr-27 05:00N 33°15' W 118°05'1211.8
2018-Apr-27 03:57N 33°26' W 118°10'712.0
2018-Apr-27 03:23N 33°33' W 118°12'410.1
2018-Apr-27 03:01N 33°36' W 118°16'611.4
2018-Apr-27 02:30N 33°36' W 118°23'611.7
2018-Apr-27 02:01N 33°39' W 118°28'611.1
2018-Apr-27 01:30N 33°43' W 118°33'611.2
2018-Apr-27 00:57N 33°49' W 118°30'510.0
2018-Apr-27 00:29N 33°54' W 118°29'1 2.8
2018-Apr-27 00:01N 33°54' W 118°28'1 0.0
2018-Apr-25 16:50N 33°55' W 118°27'0 0.0
2018-Apr-25 16:29N 33°55' W 118°27'1 1.1
2018-Apr-25 15:25N 33°54' W 118°28'2 2.8
2018-Apr-25 14:46N 33°53' W 118°30'0 0.9
2018-Apr-25 14:25N 33°52' W 118°30'1 1.5
2018-Apr-25 13:56N 33°52' W 118°30'1 3.1
2018-Apr-25 13:31N 33°50' W 118°30'1 1.6
2018-Apr-25 13:00N 33°50' W 118°30'2 4.2
2018-Apr-25 12:30N 33°47' W 118°30'3 6.0
2018-Apr-25 11:59N 33°44' W 118°30'6 9.4
2018-Apr-25 11:18N 33°40' W 118°24'311.1
2018-Apr-25 10:59N 33°38' W 118°21'511.1
2018-Apr-25 10:29N 33°39' W 118°14'5 9.7
2018-Apr-25 10:00N 33°41' W 118°09'1 2.2
2018-Apr-25 09:29N 33°41' W 118°08'0 0.1
2018-Apr-25 08:53N 33°41' W 118°08'0 0.0
2018-Apr-25 08:29N 33°41' W 118°08'0 0.0
2018-Apr-25 07:59N 33°41' W 118°08'0 0.1
2018-Apr-25 07:29N 33°41' W 118°08'0 0.0
2018-Apr-25 06:47N 33°41' W 118°08'0 0.0
2018-Apr-25 06:17N 33°41' W 118°08'0 0.0
2018-Apr-25 05:53N 33°41' W 118°08'0 0.0
2018-Apr-25 05:29N 33°41' W 118°08'0 0.0
2018-Apr-25 04:59N 33°41' W 118°08'0 0.0
2018-Apr-25 04:23N 33°41' W 118°08'0 0.0
2018-Apr-25 03:59N 33°41' W 118°08'0 0.0
2018-Apr-25 03:29N 33°41' W 118°08'0 0.0
2018-Apr-25 02:59N 33°41' W 118°08'0 0.0
2018-Apr-25 02:29N 33°41' W 118°08'0 0.0
2018-Apr-25 01:59N 33°41' W 118°08'0 0.0
2018-Apr-25 01:29N 33°41' W 118°08'0 0.0
2018-Apr-25 00:59N 33°41' W 118°08'0 0.0
2018-Apr-25 00:29N 33°41' W 118°08'0 0.0
2018-Apr-24 23:59N 33°41' W 118°08'0 0.0
2018-Apr-24 23:29N 33°41' W 118°08'0 0.0
2018-Apr-24 22:59N 33°41' W 118°08'0 0.0
2018-Apr-24 22:29N 33°41' W 118°08'0 0.0
2018-Apr-24 21:59N 33°41' W 118°08'0 0.0
2018-Apr-24 21:29N 33°41' W 118°08'0 0.0
2018-Apr-24 20:59N 33°41' W 118°08'0 0.0
2018-Apr-24 20:29N 33°41' W 118°08'0 0.0
2018-Apr-24 19:59N 33°41' W 118°08'0 0.0
2018-Apr-24 19:29N 33°41' W 118°08'0 0.0
2018-Apr-24 18:59N 33°41' W 118°08'0 0.0
2018-Apr-24 18:29N 33°41' W 118°08'0 0.0
2018-Apr-24 17:59N 33°41' W 118°08'0 0.0
2018-Apr-24 17:29N 33°41' W 118°08'0 0.1
2018-Apr-24 16:59N 33°41' W 118°08'0 0.1
2018-Apr-24 16:29N 33°41' W 118°08'0 0.0
2018-Apr-24 15:59N 33°41' W 118°08'0 0.1
2018-Apr-24 15:29N 33°41' W 118°08'0 0.0
2018-Apr-24 14:59N 33°41' W 118°08'0 0.1
2018-Apr-24 14:29N 33°41' W 118°08'0 0.0
2018-Apr-24 13:59N 33°41' W 118°08'0 0.0
2018-Apr-24 13:29N 33°41' W 118°08'0 0.1
2018-Apr-24 12:59N 33°41' W 118°08'0 0.2
2018-Apr-24 12:26N 33°41' W 118°08'0 0.2
2018-Apr-24 11:53N 33°41' W 118°08'0 0.0
2018-Apr-24 11:29N 33°41' W 118°08'0 0.0
2018-Apr-24 10:59N 33°41' W 118°08'0 0.0
2018-Apr-24 10:29N 33°41' W 118°08'0 0.1
2018-Apr-24 09:53N 33°41' W 118°08'0 0.0
2018-Apr-24 09:29N 33°41' W 118°08'0 0.0
2018-Apr-24 07:59N 33°41' W 118°08'0 0.0
2018-Apr-24 07:29N 33°41' W 118°08'0 0.0
2018-Apr-24 06:59N 33°41' W 118°08'0 0.0
2018-Apr-24 06:29N 33°41' W 118°08'0 0.0
2018-Apr-24 05:59N 33°41' W 118°08'0 0.0
2018-Apr-24 05:29N 33°41' W 118°08'0 0.0
2018-Apr-24 04:59N 33°41' W 118°08'0 0.0
2018-Apr-24 04:29N 33°41' W 118°08'0 0.0
2018-Apr-24 03:59N 33°41' W 118°08'0 0.0
2018-Apr-24 03:29N 33°41' W 118°08'0 0.1
2018-Apr-24 02:59N 33°41' W 118°08'0 0.0
2018-Apr-24 02:29N 33°41' W 118°08'0 0.0
2018-Apr-24 01:59N 33°41' W 118°08'0 0.0
2018-Apr-24 01:29N 33°41' W 118°08'0 0.1
2018-Apr-24 00:59N 33°41' W 118°08'0 0.0
2018-Apr-24 00:29N 33°41' W 118°08'0 0.1
2018-Apr-23 23:59N 33°41' W 118°08'0 0.0
2018-Apr-23 23:29N 33°41' W 118°08'0 0.0
2018-Apr-23 22:59N 33°41' W 118°08'0 0.0
2018-Apr-23 22:29N 33°41' W 118°08'0 0.1
2018-Apr-23 21:59N 33°41' W 118°08'0 0.0
2018-Apr-23 21:29N 33°41' W 118°08'0 0.0
2018-Apr-23 20:59N 33°41' W 118°08'0 0.0
2018-Apr-23 20:29N 33°41' W 118°08'0 0.0
2018-Apr-23 19:59N 33°41' W 118°08'0 0.0
2018-Apr-23 19:29N 33°41' W 118°08'0 0.1
2018-Apr-23 18:56N 33°41' W 118°08'0 0.1
2018-Apr-23 18:29N 33°41' W 118°08'0 0.1
2018-Apr-23 17:56N 33°41' W 118°08'0 0.0
2018-Apr-23 17:29N 33°41' W 118°08'0 0.0
2018-Apr-23 16:59N 33°41' W 118°08'0 0.1
2018-Apr-23 16:29N 33°41' W 118°08'0 0.1
2018-Apr-23 15:59N 33°41' W 118°08'0 0.0
2018-Apr-23 15:29N 33°41' W 118°08'0 0.1
2018-Apr-23 14:59N 33°41' W 118°08'0 0.0
2018-Apr-23 14:29N 33°41' W 118°08'0 0.0
2018-Apr-23 13:59N 33°41' W 118°08'0 0.1
2018-Apr-23 13:26N 33°41' W 118°08'0 0.0
2018-Apr-23 12:59N 33°41' W 118°08'0 0.0
2018-Apr-23 11:11N 33°41' W 118°08'0 0.0
2018-Apr-23 10:41N 33°41' W 118°08'0 0.1
2018-Apr-23 10:29N 33°41' W 118°08'0 0.0
2018-Apr-23 09:59N 33°41' W 118°08'0 0.0
2018-Apr-23 09:29N 33°41' W 118°08'0 0.1
2018-Apr-23 08:59N 33°41' W 118°08'0 0.0
2018-Apr-23 08:29N 33°41' W 118°08'0 0.0
2018-Apr-23 07:41N 33°41' W 118°08'0 0.0
2018-Apr-23 07:29N 33°41' W 118°08'0 0.1
2018-Apr-23 06:59N 33°41' W 118°08'0 0.0
2018-Apr-23 06:29N 33°41' W 118°08'0 0.0
2018-Apr-23 05:59N 33°41' W 118°08'0 0.1
2018-Apr-23 05:29N 33°41' W 118°08'0 0.1
2018-Apr-23 04:59N 33°41' W 118°08'0 0.0
2018-Apr-23 04:29N 33°41' W 118°08'0 0.0
2018-Apr-23 03:59N 33°41' W 118°08'0 0.0
2018-Apr-23 03:29N 33°41' W 118°08'0 0.0
2018-Apr-23 02:59N 33°41' W 118°08'0 0.0
2018-Apr-23 02:29N 33°41' W 118°08'0 0.0
2018-Apr-23 01:59N 33°41' W 118°08'0 0.0
2018-Apr-23 01:29N 33°41' W 118°08'0 0.0
2018-Apr-23 00:59N 33°41' W 118°08'0 0.0
2018-Apr-23 00:29N 33°41' W 118°08'0 0.0
2018-Apr-22 23:59N 33°41' W 118°08'0 0.0
2018-Apr-22 23:29N 33°41' W 118°08'0 0.0
2018-Apr-22 22:59N 33°41' W 118°08'0 0.0
2018-Apr-22 22:29N 33°41' W 118°08'0 0.1
2018-Apr-22 21:59N 33°41' W 118°08'0 0.0
2018-Apr-22 21:29N 33°41' W 118°08'0 0.0
2018-Apr-22 20:59N 33°41' W 118°08'0 0.0
2018-Apr-22 20:29N 33°41' W 118°08'0 0.0
2018-Apr-22 19:59N 33°41' W 118°08'0 0.1
2018-Apr-22 19:29N 33°41' W 118°08'0 0.0
2018-Apr-22 18:59N 33°41' W 118°08'0 0.0
2018-Apr-22 18:29N 33°41' W 118°08'0 0.0
2018-Apr-22 17:59N 33°41' W 118°08'0 0.0
2018-Apr-22 17:29N 33°41' W 118°08'0 0.0
2018-Apr-22 16:47N 33°41' W 118°08'0 0.0
2018-Apr-22 16:29N 33°41' W 118°08'0 0.1
2018-Apr-22 15:59N 33°41' W 118°08'0 0.0
2018-Apr-22 15:29N 33°41' W 118°08'0 0.0
2018-Apr-22 14:59N 33°41' W 118°08'0 0.0
2018-Apr-22 14:29N 33°41' W 118°08'0 0.0
2018-Apr-22 13:59N 33°41' W 118°08'0 0.0
2018-Apr-22 13:29N 33°41' W 118°08'0 0.0
2018-Apr-22 12:59N 33°41' W 118°08'0 0.1
2018-Apr-22 12:29N 33°41' W 118°08'0 0.0
2018-Apr-22 11:59N 33°41' W 118°08'0 0.0
2018-Apr-22 11:29N 33°41' W 118°08'0 0.1
2018-Apr-22 10:53N 33°41' W 118°08'0 0.0
2018-Apr-22 10:29N 33°41' W 118°08'0 0.1
2018-Apr-22 09:59N 33°41' W 118°08'0 0.0
2018-Apr-22 09:29N 33°41' W 118°08'0 0.1
2018-Apr-22 08:56N 33°41' W 118°08'0 0.0
2018-Apr-22 08:29N 33°41' W 118°08'0 0.0
2018-Apr-22 07:56N 33°41' W 118°08'0 0.1
2018-Apr-22 07:29N 33°41' W 118°08'0 0.0
2018-Apr-22 06:59N 33°41' W 118°08'0 0.0
2018-Apr-22 06:29N 33°41' W 118°08'0 0.0
2018-Apr-22 05:59N 33°41' W 118°08'0 0.0
2018-Apr-22 05:29N 33°41' W 118°08'0 0.0
2018-Apr-22 04:59N 33°41' W 118°08'0 0.1
2018-Apr-22 04:29N 33°41' W 118°08'0 0.0
2018-Apr-22 03:59N 33°41' W 118°08'0 0.0
2018-Apr-22 03:29N 33°41' W 118°08'0 0.0
2018-Apr-22 02:59N 33°41' W 118°08'0 0.0
2018-Apr-22 02:29N 33°41' W 118°08'0 0.0
2018-Apr-22 01:59N 33°41' W 118°08'0 0.0
2018-Apr-22 01:29N 33°41' W 118°08'0 0.1
2018-Apr-22 00:59N 33°41' W 118°08'0 0.0
2018-Apr-22 00:29N 33°41' W 118°08'0 0.0
2018-Apr-21 23:59N 33°41' W 118°08'0 0.0
2018-Apr-21 23:29N 33°41' W 118°08'0 0.1
2018-Apr-21 22:59N 33°41' W 118°08'0 0.1
2018-Apr-21 22:29N 33°41' W 118°08'0 0.1
2018-Apr-21 21:59N 33°41' W 118°08'0 0.0
2018-Apr-21 21:29N 33°41' W 118°08'0 0.0
2018-Apr-21 20:59N 33°41' W 118°08'0 0.0
2018-Apr-21 20:29N 33°41' W 118°08'0 0.1
2018-Apr-21 19:59N 33°41' W 118°08'0 0.0
2018-Apr-21 19:29N 33°41' W 118°08'0 0.0
2018-Apr-21 18:59N 33°41' W 118°08'0 0.0
2018-Apr-21 18:29N 33°41' W 118°08'0 0.0
2018-Apr-21 17:59N 33°41' W 118°08'0 0.0
2018-Apr-21 17:29N 33°41' W 118°08'0 0.0
2018-Apr-21 16:59N 33°41' W 118°08'0 0.0
2018-Apr-21 16:26N 33°41' W 118°08'0 0.1
2018-Apr-21 15:35N 33°41' W 118°08'0 0.1
2018-Apr-21 15:29N 33°41' W 118°08'0 0.0
2018-Apr-21 14:59N 33°41' W 118°08'0 0.1
2018-Apr-21 14:29N 33°41' W 118°08'0 0.1
2018-Apr-21 13:59N 33°41' W 118°08'0 0.0
2018-Apr-21 13:29N 33°41' W 118°08'0 0.0
2018-Apr-21 12:59N 33°41' W 118°08'0 0.0
2018-Apr-21 12:26N 33°41' W 118°08'0 0.0
2018-Apr-21 11:59N 33°41' W 118°08'0 0.0
2018-Apr-21 11:29N 33°41' W 118°08'0 0.0
2018-Apr-21 10:26N 33°41' W 118°08'0 0.1
2018-Apr-21 09:56N 33°41' W 118°08'0 0.0
2018-Apr-21 09:23N 33°41' W 118°08'0 0.1
2018-Apr-21 08:47N 33°41' W 118°08'0 0.0
2018-Apr-21 08:11N 33°41' W 118°08'0 0.0
2018-Apr-21 07:59N 33°41' W 118°08'0 0.0
2018-Apr-21 07:29N 33°41' W 118°08'0 0.0
2018-Apr-21 06:59N 33°41' W 118°08'0 0.0
2018-Apr-21 06:23N 33°41' W 118°08'0 0.1
2018-Apr-21 05:53N 33°41' W 118°08'0 0.0
2018-Apr-21 05:17N 33°41' W 118°08'0 0.1
2018-Apr-21 04:53N 33°41' W 118°08'0 0.1
2018-Apr-21 04:29N 33°41' W 118°08'0 0.0
2018-Apr-21 03:59N 33°41' W 118°08'0 0.0
2018-Apr-21 03:29N 33°41' W 118°08'0 0.0
2018-Apr-21 02:59N 33°41' W 118°08'0 0.1
2018-Apr-21 02:29N 33°41' W 118°08'0 0.0
2018-Apr-21 01:59N 33°41' W 118°08'0 0.0
2018-Apr-21 01:29N 33°41' W 118°08'0 0.0
2018-Apr-21 00:59N 33°41' W 118°08'0 0.0
2018-Apr-21 00:29N 33°41' W 118°08'0 0.0
2018-Apr-20 23:59N 33°41' W 118°08'0 0.0
2018-Apr-20 23:29N 33°41' W 118°08'0 0.2
2018-Apr-20 22:59N 33°41' W 118°08'0 0.1
2018-Apr-20 22:29N 33°41' W 118°08'0 0.0
2018-Apr-20 21:59N 33°41' W 118°08'0 0.0
2018-Apr-20 21:29N 33°41' W 118°08'0 0.1
2018-Apr-20 20:59N 33°41' W 118°08'0 0.0
2018-Apr-20 20:29N 33°41' W 118°08'0 0.1
2018-Apr-20 19:50N 33°41' W 118°08'0 0.0
2018-Apr-20 16:26N 33°41' W 118°08'0 0.0
2018-Apr-20 15:56N 33°41' W 118°08'0 0.0
2018-Apr-20 09:26N 33°41' W 118°08'0 0.0
2018-Apr-20 08:20N 33°41' W 118°08'0 0.0
2018-Apr-20 07:56N 33°41' W 118°08'0 0.0
2018-Apr-20 06:20N 33°41' W 118°08'0 0.0
2018-Apr-20 02:47N 33°41' W 118°08'0 0.1
2018-Apr-20 02:20N 33°41' W 118°08'0 0.1
2018-Apr-20 01:53N 33°41' W 118°08'0 0.0
2018-Apr-20 01:29N 33°41' W 118°08'0 0.0
2018-Apr-20 00:59N 33°41' W 118°08'0 0.1
2018-Apr-20 00:29N 33°41' W 118°08'0 0.1
2018-Apr-19 23:53N 33°41' W 118°08'0 0.0
2018-Apr-19 23:26N 33°41' W 118°08'0 0.1
2018-Apr-19 22:56N 33°41' W 118°08'0 0.0
2018-Apr-19 22:29N 33°41' W 118°08'0 0.1
2018-Apr-19 21:53N 33°41' W 118°08'0 0.1
2018-Apr-19 21:26N 33°41' W 118°08'0 0.0
2018-Apr-19 20:20N 33°41' W 118°08'0 0.0
2018-Apr-19 19:50N 33°41' W 118°08'0 0.1
2018-Apr-19 18:50N 33°41' W 118°08'0 0.0
2018-Apr-19 16:20N 33°41' W 118°08'0 0.1
2018-Apr-19 15:59N 33°41' W 118°08'0 0.1
2018-Apr-19 15:14N 33°41' W 118°08'0 0.0
2018-Apr-19 14:50N 33°41' W 118°08'0 0.0
2018-Apr-19 14:29N 33°41' W 118°08'0 0.0
2018-Apr-19 13:59N 33°41' W 118°08'0 0.0
2018-Apr-19 13:29N 33°41' W 118°08'0 0.0
2018-Apr-19 08:38N 33°41' W 118°08'0 0.0
2018-Apr-19 02:23N 33°41' W 118°08'0 0.0
2018-Apr-19 01:59N 33°41' W 118°08'0 0.0
2018-Apr-19 01:29N 33°41' W 118°08'0 0.0
2018-Apr-19 00:59N 33°41' W 118°08'0 0.0
2018-Apr-19 00:26N 33°41' W 118°08'0 0.1
2018-Apr-18 23:59N 33°41' W 118°08'0 0.0
2018-Apr-18 23:29N 33°41' W 118°08'0 0.0
2018-Apr-18 22:59N 33°41' W 118°08'0 0.0
2018-Apr-18 22:29N 33°41' W 118°08'0 0.0
2018-Apr-18 21:59N 33°41' W 118°08'0 0.0
2018-Apr-18 21:29N 33°41' W 118°08'0 0.0
2018-Apr-18 20:56N 33°41' W 118°08'0 0.1
2018-Apr-18 20:29N 33°41' W 118°08'0 0.1
2018-Apr-18 19:59N 33°41' W 118°08'0 0.0
2018-Apr-18 19:29N 33°41' W 118°08'0 0.0
2018-Apr-18 18:59N 33°41' W 118°08'0 0.0
2018-Apr-18 18:29N 33°41' W 118°08'0 0.0
2018-Apr-18 17:59N 33°41' W 118°08'0 0.0
2018-Apr-18 17:29N 33°41' W 118°08'0 0.0
2018-Apr-18 16:59N 33°41' W 118°08'0 0.0
2018-Apr-18 16:29N 33°41' W 118°08'0 0.0
2018-Apr-18 15:59N 33°41' W 118°08'0 0.1
2018-Apr-18 15:29N 33°41' W 118°08'0 0.0
2018-Apr-18 14:59N 33°41' W 118°08'0 0.1
2018-Apr-18 14:26N 33°41' W 118°08'0 0.0
2018-Apr-18 13:59N 33°41' W 118°08'0 0.1
2018-Apr-18 13:29N 33°41' W 118°08'0 0.1
2018-Apr-18 12:41N 33°41' W 118°08'0 0.0
2018-Apr-18 12:11N 33°41' W 118°08'0 0.0
2018-Apr-18 11:59N 33°41' W 118°08'0 0.0
2018-Apr-18 11:08N 33°41' W 118°08'0 0.0
2018-Apr-18 10:53N 33°41' W 118°08'0 0.0
2018-Apr-18 10:29N 33°41' W 118°08'0 0.0
2018-Apr-18 09:59N 33°41' W 118°08'0 0.0
2018-Apr-18 09:29N 33°41' W 118°08'0 0.0
2018-Apr-18 08:59N 33°41' W 118°08'0 0.0
2018-Apr-18 08:29N 33°41' W 118°08'0 0.0
2018-Apr-18 07:59N 33°41' W 118°08'0 0.0
2018-Apr-18 07:29N 33°41' W 118°08'0 0.0
2018-Apr-18 06:59N 33°41' W 118°08'0 0.0
2018-Apr-18 04:35N 33°41' W 118°08'0 0.0
2018-Apr-18 04:23N 33°41' W 118°08'0 0.1
2018-Apr-18 03:56N 33°41' W 118°08'0 0.2
2018-Apr-18 03:29N 33°41' W 118°08'0 0.0
2018-Apr-18 02:59N 33°41' W 118°08'0 0.0
2018-Apr-18 02:29N 33°41' W 118°08'0 0.0
2018-Apr-18 01:59N 33°41' W 118°08'0 0.0
2018-Apr-18 01:29N 33°41' W 118°08'0 0.1
2018-Apr-18 00:59N 33°41' W 118°08'0 0.1
2018-Apr-18 00:29N 33°41' W 118°08'0 0.1
2018-Apr-17 23:59N 33°41' W 118°08'0 0.0
2018-Apr-17 23:29N 33°41' W 118°08'0 0.1
2018-Apr-17 22:59N 33°41' W 118°08'0 0.1
2018-Apr-17 22:29N 33°41' W 118°08'0 0.0
2018-Apr-17 21:59N 33°41' W 118°08'0 0.1
2018-Apr-17 21:29N 33°41' W 118°08'0 0.1
2018-Apr-17 20:59N 33°41' W 118°08'0 0.0
2018-Apr-17 20:26N 33°41' W 118°08'0 0.0
2018-Apr-17 19:59N 33°41' W 118°08'0 0.0
2018-Apr-17 19:29N 33°41' W 118°08'0 0.1
2018-Apr-17 18:59N 33°41' W 118°08'0 0.1
2018-Apr-17 18:29N 33°41' W 118°08'0 0.0
2018-Apr-17 17:59N 33°41' W 118°08'0 0.1
2018-Apr-17 17:26N 33°41' W 118°08'0 0.1
2018-Apr-17 16:59N 33°41' W 118°08'0 0.1
2018-Apr-17 16:23N 33°41' W 118°08'0 0.2
2018-Apr-17 15:59N 33°41' W 118°08'0 0.0
2018-Apr-17 15:29N 33°41' W 118°08'0 0.0
2018-Apr-17 14:59N 33°41' W 118°08'0 0.1
2018-Apr-17 14:29N 33°41' W 118°08'0 0.1
2018-Apr-17 13:59N 33°41' W 118°08'0 0.0
2018-Apr-17 13:29N 33°41' W 118°08'1 1.4
2018-Apr-17 12:59N 33°40' W 118°08'4 6.8
2018-Apr-17 12:25N 33°37' W 118°10'19 9.7
2018-Apr-17 10:25N 33°42' W 118°33'511.5
2018-Apr-17 10:00N 33°44' W 118°38'  

Dump ship's entire track history